createdAt,value
2022-08-04T00:01:41.784Z,22.41
2022-08-04T00:04:13.087Z,22.33
2022-08-04T00:06:50.374Z,22.34
2022-08-04T00:09:26.339Z,22.26
2022-08-04T00:11:56.811Z,22.18
2022-08-04T00:14:26.270Z,22.21
2022-08-04T00:16:55.355Z,22.10
2022-08-04T00:19:28.492Z,21.91
2022-08-04T00:21:57.830Z,21.94
2022-08-04T00:24:27.368Z,21.89
2022-08-04T00:26:55.627Z,21.87
2022-08-04T00:29:24.245Z,22.01
2022-08-04T00:31:56.285Z,21.93
2022-08-04T00:34:27.127Z,21.98
2022-08-04T00:36:55.654Z,21.94
2022-08-04T00:39:24.276Z,21.87
2022-08-04T00:42:06.405Z,21.80
2022-08-04T00:44:39.530Z,21.87
2022-08-04T00:47:17.364Z,21.76
2022-08-04T00:49:57.332Z,21.76
2022-08-04T00:52:34.567Z,21.85
2022-08-04T00:55:13.654Z,21.81
2022-08-04T00:57:50.910Z,21.76
2022-08-04T01:00:20.709Z,21.69
2022-08-04T01:02:55.851Z,21.67
2022-08-04T01:05:36.640Z,21.67
2022-08-04T01:08:17.719Z,21.65
2022-08-04T01:10:50.004Z,21.74
2022-08-04T01:13:44.953Z,21.66
2022-08-04T01:16:15.778Z,21.49
2022-08-04T01:18:47.826Z,21.41
2022-08-04T01:21:32.213Z,21.38
2022-08-04T01:24:14.978Z,21.38
2022-08-04T01:26:57.994Z,21.46
2022-08-04T01:29:44.021Z,21.49
2022-08-04T01:32:21.091Z,21.48
2022-08-04T01:34:57.543Z,21.50
2022-08-04T01:37:33.086Z,21.44
2022-08-04T01:40:04.136Z,21.41
2022-08-04T01:42:33.213Z,21.38
2022-08-04T01:45:04.887Z,21.35
2022-08-04T01:47:35.465Z,21.28
2022-08-04T01:50:06.532Z,21.27
2022-08-04T01:52:35.893Z,21.18
2022-08-04T01:55:05.275Z,21.18
2022-08-04T01:57:38.781Z,21.18
2022-08-04T02:00:10.219Z,21.12
2022-08-04T02:02:38.258Z,21.12
2022-08-04T02:05:06.707Z,21.08
2022-08-04T02:07:41.993Z,21.10
2022-08-04T02:10:14.358Z,21.11
2022-08-04T02:12:52.164Z,21.10
2022-08-04T02:15:26.507Z,21.07
2022-08-04T02:17:58.480Z,20.94
2022-08-04T02:20:31.142Z,20.94
2022-08-04T02:23:00.770Z,20.92
2022-08-04T02:25:31.334Z,20.92
2022-08-04T02:28:06.525Z,20.97
2022-08-04T02:30:41.937Z,21.02
2022-08-04T02:33:13.560Z,21.07
2022-08-04T02:35:42.530Z,20.95
2022-08-04T02:38:14.134Z,20.96
2022-08-04T02:40:43.243Z,20.92
2022-08-04T02:43:12.037Z,20.87
2022-08-04T02:45:43.134Z,20.91
2022-08-04T02:48:30.135Z,20.79
2022-08-04T02:51:00.613Z,20.82
2022-08-04T02:53:29.870Z,20.75
2022-08-04T02:55:59.219Z,20.67
2022-08-04T02:58:30.640Z,20.69
2022-08-04T03:01:00.022Z,20.76
2022-08-04T03:03:32.333Z,20.78
2022-08-04T03:06:19.841Z,20.72
2022-08-04T03:09:07.000Z,20.67
2022-08-04T03:11:52.601Z,20.53
2022-08-04T03:14:38.347Z,20.53
2022-08-04T03:17:26.987Z,20.50
2022-08-04T03:20:09.756Z,20.41
2022-08-04T03:23:12.390Z,20.31
2022-08-04T03:25:59.601Z,20.30
2022-08-04T03:28:42.453Z,20.30
2022-08-04T03:31:34.971Z,20.28
2022-08-04T03:34:14.962Z,20.38
2022-08-04T03:37:04.339Z,20.32
2022-08-04T03:39:50.769Z,20.32
2022-08-04T03:42:35.582Z,20.41
2022-08-04T03:45:20.554Z,20.39
2022-08-04T03:48:09.743Z,20.31
2022-08-04T03:50:48.202Z,20.31
2022-08-04T03:53:32.160Z,20.26
2022-08-04T03:56:14.945Z,20.23
2022-08-04T03:59:16.298Z,20.17
2022-08-04T04:02:02.400Z,20.28
2022-08-04T04:04:51.481Z,20.37
2022-08-04T04:07:37.378Z,20.41
2022-08-04T04:10:13.855Z,20.36
2022-08-04T04:12:59.537Z,20.39
2022-08-04T04:15:36.061Z,20.39
2022-08-04T04:18:24.890Z,20.44
2022-08-04T04:21:07.501Z,20.52
2022-08-04T04:23:54.450Z,20.56
2022-08-04T04:26:33.802Z,20.65
2022-08-04T04:29:13.860Z,20.75
2022-08-04T04:31:55.060Z,20.79
2022-08-04T04:34:33.908Z,20.87
2022-08-04T04:37:13.387Z,21.01
2022-08-04T04:39:46.227Z,21.19
2022-08-04T04:42:26.839Z,21.39
2022-08-04T04:45:04.991Z,21.57
2022-08-04T04:47:43.039Z,21.69
2022-08-04T04:50:36.987Z,21.83
2022-08-04T04:53:10.997Z,21.93
2022-08-04T04:55:47.693Z,21.99
2022-08-04T04:58:18.363Z,22.03
2022-08-04T05:00:56.602Z,22.13
2022-08-04T05:03:39.444Z,22.22
2022-08-04T05:06:18.050Z,22.32
2022-08-04T05:09:00.902Z,22.40
2022-08-04T05:11:47.392Z,22.37
2022-08-04T05:14:37.624Z,22.45
2022-08-04T05:17:13.841Z,22.53
2022-08-04T05:19:46.953Z,22.55
2022-08-04T05:22:22.296Z,22.60
2022-08-04T05:24:53.682Z,22.84
2022-08-04T05:27:24.441Z,22.81
2022-08-04T05:29:54.301Z,23.07
2022-08-04T05:32:25.981Z,23.28
2022-08-04T05:34:57.207Z,23.51
2022-08-04T05:37:29.965Z,23.71
2022-08-04T05:39:59.668Z,23.88
2022-08-04T05:42:29.025Z,24.00
2022-08-04T05:44:57.318Z,24.13
2022-08-04T05:47:26.214Z,24.22
2022-08-04T05:50:01.193Z,24.30
2022-08-04T05:52:32.616Z,24.42
2022-08-04T05:55:01.720Z,24.40
2022-08-04T05:57:30.496Z,24.44
2022-08-04T06:00:00.183Z,24.46
2022-08-04T06:02:29.215Z,24.48
2022-08-04T06:04:58.694Z,24.67
2022-08-04T06:07:26.884Z,24.77
2022-08-04T06:09:56.488Z,24.88
2022-08-04T06:12:38.941Z,25.01
2022-08-04T06:15:09.366Z,25.17
2022-08-04T06:19:56.723Z,25.33
2022-08-04T06:20:34.494Z,25.39
2022-08-04T06:23:08.951Z,25.50
2022-08-04T06:25:44.402Z,25.50
2022-08-04T06:28:14.425Z,25.64
2022-08-04T06:30:42.837Z,25.82
2022-08-04T06:33:24.863Z,25.87
2022-08-04T06:35:55.603Z,25.85
2022-08-04T06:38:25.781Z,25.87
2022-08-04T06:40:58.130Z,26.06
2022-08-04T06:43:26.989Z,26.20
2022-08-04T06:46:02.443Z,26.32
2022-08-04T06:48:33.539Z,26.30
2022-08-04T06:51:32.750Z,26.57
2022-08-04T06:53:51.151Z,26.70
2022-08-04T06:56:21.693Z,26.78
2022-08-04T06:58:51.390Z,26.80
2022-08-04T07:01:20.819Z,26.88
2022-08-04T07:03:50.732Z,27.05
2022-08-04T07:06:19.310Z,27.07
2022-08-04T07:08:47.800Z,27.07
2022-08-04T07:11:16.533Z,27.16
2022-08-04T07:13:46.771Z,27.22
2022-08-04T07:16:15.190Z,27.37
2022-08-04T07:18:43.256Z,27.43
2022-08-04T07:21:12.285Z,27.49
2022-08-04T07:23:40.551Z,27.57
2022-08-04T07:26:12.052Z,27.73
2022-08-04T07:28:42.248Z,27.76
2022-08-04T07:31:31.912Z,27.85
2022-08-04T07:34:20.992Z,27.92
2022-08-04T07:36:52.873Z,27.99
2022-08-04T07:39:28.175Z,28.05
2022-08-04T07:41:58.760Z,28.06
2022-08-04T07:44:26.870Z,28.08
2022-08-04T07:46:56.493Z,28.03
2022-08-04T07:49:52.138Z,27.88
2022-08-04T07:52:15.283Z,27.75
2022-08-04T07:54:45.028Z,27.86
2022-08-04T07:57:19.163Z,27.82
2022-08-04T08:00:01.549Z,27.90
2022-08-04T08:02:31.999Z,27.96
2022-08-04T08:05:00.659Z,27.94
2022-08-04T08:07:28.984Z,27.99
2022-08-04T08:09:57.187Z,28.10
2022-08-04T08:12:37.745Z,28.37
2022-08-04T08:15:15.789Z,28.39
2022-08-04T08:17:58.861Z,28.65
2022-08-04T08:20:33.473Z,28.54
2022-08-04T08:23:04.119Z,28.76
2022-08-04T08:25:34.310Z,28.75
2022-08-04T08:28:05.288Z,28.86
2022-08-04T08:30:34.740Z,28.64
2022-08-04T08:33:08.503Z,28.52
2022-08-04T08:35:53.169Z,28.47
2022-08-04T08:38:35.953Z,28.54
2022-08-04T08:41:37.358Z,28.73
2022-08-04T08:44:38.639Z,28.75
2022-08-04T08:47:21.337Z,28.76
2022-08-04T08:50:38.446Z,28.66
2022-08-04T08:53:24.629Z,28.45
2022-08-04T08:56:13.098Z,28.74
2022-08-04T08:59:01.269Z,28.87
2022-08-04T09:01:45.912Z,28.93
2022-08-04T09:04:43.413Z,29.10
2022-08-04T09:07:34.072Z,29.31
2022-08-04T09:10:17.010Z,29.38
2022-08-04T09:12:51.982Z,29.44
2022-08-04T09:15:31.318Z,29.36
2022-08-04T09:18:07.053Z,29.50
2022-08-04T09:20:41.576Z,29.65
2022-08-04T09:23:20.162Z,29.49
2022-08-04T09:25:55.743Z,29.29
2022-08-04T09:28:52.349Z,29.24
2022-08-04T09:31:18.679Z,29.27
2022-08-04T09:33:57.436Z,29.40
2022-08-04T09:36:33.784Z,29.39
2022-08-04T09:39:16.173Z,29.49
2022-08-04T09:41:56.139Z,29.62
2022-08-04T09:44:50.053Z,29.64
2022-08-04T09:47:39.797Z,29.76
2022-08-04T09:50:25.700Z,29.82
2022-08-04T09:53:00.691Z,29.91
2022-08-04T09:55:53.176Z,29.83
2022-08-04T09:58:35.287Z,29.63
2022-08-04T10:01:07.633Z,29.46
2022-08-04T10:03:39.383Z,29.46
2022-08-04T10:06:45.012Z,29.40
2022-08-04T10:09:35.838Z,29.33
2022-08-04T10:12:18.019Z,29.37
2022-08-04T10:14:54.208Z,29.69
2022-08-04T10:17:52.102Z,29.72
2022-08-04T10:20:46.481Z,29.87
2022-08-04T10:23:29.149Z,29.94
2022-08-04T10:26:08.448Z,30.18
2022-08-04T10:28:45.582Z,30.31
2022-08-04T10:31:20.959Z,30.41
2022-08-04T10:33:54.872Z,30.40
2022-08-04T10:36:28.899Z,30.28
2022-08-04T10:39:02.694Z,30.26
2022-08-04T10:41:37.493Z,30.33
2022-08-04T10:44:23.701Z,30.45
2022-08-04T10:46:57.031Z,30.47
2022-08-04T10:49:34.412Z,30.35
2022-08-04T10:52:08.981Z,30.21
2022-08-04T10:54:48.352Z,30.21
2022-08-04T10:57:22.852Z,30.62
2022-08-04T11:00:00.558Z,30.69
2022-08-04T11:02:39.275Z,30.83
2022-08-04T11:05:18.627Z,30.90
2022-08-04T11:07:48.938Z,30.86
2022-08-04T11:10:21.721Z,30.78
2022-08-04T11:12:57.972Z,30.83
2022-08-04T11:15:35.914Z,30.74
2022-08-04T11:18:16.286Z,30.72
2022-08-04T11:20:53.096Z,30.31
2022-08-04T11:23:28.100Z,30.37
2022-08-04T11:26:02.584Z,30.61
2022-08-04T11:28:43.887Z,30.86
2022-08-04T11:31:21.102Z,30.98
2022-08-04T11:33:58.073Z,31.08
2022-08-04T11:36:37.758Z,30.88
2022-08-04T11:39:11.584Z,30.80
2022-08-04T11:41:50.903Z,30.95
2022-08-04T11:44:27.813Z,31.00
2022-08-04T11:47:03.813Z,30.99
2022-08-04T11:49:56.019Z,30.87
2022-08-04T11:52:27.554Z,30.45
2022-08-04T11:54:57.703Z,30.91
2022-08-04T11:57:35.958Z,30.98
2022-08-04T12:00:10.440Z,31.20
2022-08-04T12:03:03.396Z,31.48
2022-08-04T12:05:37.860Z,31.55
2022-08-04T12:08:27.241Z,31.31
2022-08-04T12:11:07.877Z,31.28
2022-08-04T12:13:45.263Z,31.48
2022-08-04T12:16:19.265Z,31.95
2022-08-04T12:18:52.520Z,32.18
2022-08-04T12:21:30.406Z,31.99
2022-08-04T12:24:04.000Z,32.01
2022-08-04T12:26:36.146Z,32.20
2022-08-04T12:29:10.176Z,32.52
2022-08-04T12:31:43.292Z,32.60
2022-08-04T12:34:14.918Z,32.64
2022-08-04T12:36:46.578Z,32.55
2022-08-04T12:39:16.908Z,32.60
2022-08-04T12:41:55.032Z,32.79
2022-08-04T12:44:37.461Z,33.03
2022-08-04T12:47:26.446Z,33.11
2022-08-04T12:50:02.300Z,33.20
2022-08-04T12:52:59.266Z,33.37
2022-08-04T12:55:21.602Z,33.60
2022-08-04T12:57:50.862Z,33.80
2022-08-04T13:00:29.830Z,33.85
2022-08-04T13:03:09.485Z,33.98
2022-08-04T13:05:40.516Z,34.23
2022-08-04T13:08:09.994Z,34.56
2022-08-04T13:10:40.920Z,34.76
2022-08-04T13:13:13.631Z,35.00
2022-08-04T13:15:47.162Z,35.23
2022-08-04T13:18:30.162Z,35.34
2022-08-04T13:21:20.570Z,35.16
2022-08-04T13:26:53.387Z,34.18
2022-08-04T13:29:59.865Z,34.09
2022-08-04T13:30:24.215Z,34.42
2022-08-04T13:32:13.235Z,34.41
2022-08-04T13:34:42.458Z,34.82
2022-08-04T13:37:20.800Z,35.22
2022-08-04T13:39:55.599Z,35.63
2022-08-04T13:42:25.498Z,36.04
2022-08-04T13:44:58.749Z,36.35
2022-08-04T13:47:28.836Z,36.61
2022-08-04T13:50:21.164Z,36.91
2022-08-04T13:52:52.915Z,37.22
2022-08-04T13:55:21.871Z,37.38
2022-08-04T13:57:53.092Z,37.52
2022-08-04T14:00:29.703Z,37.33
2022-08-04T14:03:03.501Z,37.33
2022-08-04T14:06:05.346Z,37.61
2022-08-04T14:08:37.839Z,37.85
2022-08-04T14:11:06.888Z,38.08
2022-08-04T14:13:41.181Z,37.97
2022-08-04T14:16:16.561Z,38.15
2022-08-04T14:18:44.634Z,38.62
2022-08-04T14:21:16.863Z,38.87
2022-08-04T14:23:51.108Z,39.11
2022-08-04T14:26:31.290Z,39.39
2022-08-04T14:29:28.607Z,38.83
2022-08-04T14:32:12.758Z,38.22
2022-08-04T14:34:45.116Z,38.10
2022-08-04T14:37:18.640Z,38.32
2022-08-04T14:40:19.292Z,38.61
2022-08-04T14:42:42.531Z,38.17
2022-08-04T14:45:11.155Z,38.27
2022-08-04T14:47:51.976Z,38.32
2022-08-04T14:50:21.790Z,38.24
2022-08-04T14:52:50.150Z,38.41
2022-08-04T14:55:21.206Z,38.35
2022-08-04T14:58:34.749Z,38.41
2022-08-04T15:00:38.226Z,38.08
2022-08-04T15:03:08.876Z,38.13
2022-08-04T15:05:59.962Z,38.52
2022-08-04T15:08:29.246Z,39.09
2022-08-04T15:11:03.128Z,39.55
2022-08-04T15:13:32.265Z,39.82
2022-08-04T15:16:06.270Z,39.87
2022-08-04T15:18:37.298Z,40.25
2022-08-04T15:21:06.204Z,40.62
2022-08-04T15:23:39.216Z,40.94
2022-08-04T15:26:11.280Z,41.27
2022-08-04T15:28:41.240Z,41.55
2022-08-04T15:32:06.394Z,41.61
2022-08-04T15:33:58.719Z,41.89
2022-08-04T15:36:32.696Z,42.01
2022-08-04T15:39:05.139Z,41.66
2022-08-04T15:41:37.844Z,41.39
2022-08-04T15:44:24.679Z,41.39
2022-08-04T15:47:12.638Z,41.70
2022-08-04T15:49:41.859Z,42.00
2022-08-04T15:52:11.853Z,41.61
2022-08-04T15:54:42.370Z,41.74
2022-08-04T15:57:53.644Z,42.75
2022-08-04T16:00:21.897Z,43.49
2022-08-04T16:02:50.573Z,44.19
2022-08-04T16:05:36.898Z,45.25
2022-08-04T16:08:15.537Z,44.49
2022-08-04T16:10:46.729Z,43.62
2022-08-04T16:13:19.703Z,43.62
2022-08-04T16:15:53.784Z,43.80
2022-08-04T16:18:40.666Z,43.01
2022-08-04T16:21:20.334Z,44.51
2022-08-04T16:24:30.536Z,45.42
2022-08-04T16:27:00.470Z,46.70
2022-08-04T16:29:39.991Z,46.36
2022-08-04T16:32:18.402Z,46.29
2022-08-04T16:34:59.061Z,46.35
2022-08-04T16:37:32.869Z,45.09
2022-08-04T16:40:19.497Z,43.81
2022-08-04T16:42:47.678Z,43.47
2022-08-04T16:45:17.981Z,42.80
2022-08-04T16:48:08.146Z,42.02
2022-08-04T16:50:47.979Z,41.04
2022-08-04T16:53:53.137Z,39.28
2022-08-04T16:56:06.438Z,37.88
2022-08-04T16:58:36.790Z,37.35
2022-08-04T17:01:10.511Z,37.49
2022-08-04T17:03:57.711Z,37.53
2022-08-04T17:06:35.961Z,36.13
2022-08-04T17:09:07.222Z,34.56
2022-08-04T17:11:35.264Z,33.96
2022-08-04T17:14:05.835Z,33.28
2022-08-04T17:16:36.317Z,32.84
2022-08-04T17:19:04.950Z,32.54
2022-08-04T17:21:34.275Z,32.39
2022-08-04T17:24:15.665Z,32.19
2022-08-04T17:26:51.732Z,32.02
2022-08-04T17:29:22.757Z,31.83
2022-08-04T17:32:16.289Z,31.67
2022-08-04T17:34:47.652Z,31.58
2022-08-04T17:40:10.272Z,31.42
2022-08-04T17:42:42.036Z,31.29
2022-08-04T17:45:50.091Z,31.25
2022-08-04T17:48:03.007Z,31.12
2022-08-04T17:50:35.877Z,30.98
2022-08-04T17:53:11.503Z,30.97
2022-08-04T17:55:41.891Z,30.92
2022-08-04T17:58:20.987Z,30.87
2022-08-04T18:00:51.238Z,30.74
2022-08-04T18:03:29.155Z,30.62
2022-08-04T18:06:03.382Z,30.48
2022-08-04T18:08:39.841Z,30.43
2022-08-04T18:11:22.045Z,30.28
2022-08-04T18:13:54.471Z,30.22
2022-08-04T18:16:27.406Z,30.12
2022-08-04T18:19:12.770Z,29.98
2022-08-04T18:21:45.660Z,29.81
2022-08-04T18:24:34.335Z,29.72
2022-08-04T18:27:06.587Z,29.57
2022-08-04T18:29:38.988Z,29.50
2022-08-04T18:32:08.962Z,29.35
2022-08-04T18:34:40.730Z,29.18
2022-08-04T18:38:06.717Z,29.09
2022-08-04T18:40:26.592Z,29.05
2022-08-04T18:42:59.887Z,28.85
2022-08-04T18:45:34.719Z,28.68
2022-08-04T18:48:04.152Z,28.63
2022-08-04T18:51:11.206Z,28.53
2022-08-04T18:53:35.146Z,28.39
2022-08-04T18:56:04.143Z,28.37
2022-08-04T18:58:34.490Z,28.31
2022-08-04T19:01:02.616Z,28.27
2022-08-04T19:03:44.724Z,28.22
2022-08-04T19:06:18.140Z,28.14
2022-08-04T19:08:55.564Z,28.05
2022-08-04T19:11:54.087Z,27.98
2022-08-04T19:14:13.233Z,27.93
2022-08-04T19:19:47.396Z,27.74
2022-08-04T19:22:35.450Z,27.66
2022-08-04T19:25:04.450Z,27.65
2022-08-04T19:27:38.508Z,27.68
2022-08-04T19:30:09.787Z,27.59
2022-08-04T19:32:41.032Z,27.53
2022-08-04T19:35:14.388Z,27.59
2022-08-04T19:37:58.448Z,27.45
2022-08-04T19:40:33.540Z,27.32
2022-08-04T19:43:14.277Z,27.27
2022-08-04T19:45:45.408Z,27.26
2022-08-04T19:48:19.215Z,27.28
2022-08-04T19:50:48.723Z,27.30
2022-08-04T19:53:20.101Z,27.29
2022-08-04T19:56:06.623Z,27.25
2022-08-04T19:58:34.940Z,27.20
2022-08-04T20:01:03.225Z,27.21
2022-08-04T20:06:19.889Z,27.15
2022-08-04T20:08:50.081Z,27.11
2022-08-04T20:11:21.117Z,26.99
2022-08-04T20:13:54.139Z,26.89
2022-08-04T20:16:28.392Z,26.88
2022-08-04T20:19:03.628Z,26.88
2022-08-04T20:21:54.398Z,26.76
2022-08-04T20:24:40.743Z,26.71
2022-08-04T20:27:15.487Z,26.59
2022-08-04T20:29:48.357Z,26.44
2022-08-04T20:32:19.308Z,26.36
2022-08-04T20:34:48.100Z,26.44
2022-08-04T20:37:16.450Z,26.45
2022-08-04T20:39:54.480Z,26.49
2022-08-04T20:42:27.266Z,26.36
2022-08-04T20:45:01.932Z,26.29
2022-08-04T20:47:35.049Z,26.15
2022-08-04T20:50:04.703Z,26.14
2022-08-04T20:52:33.660Z,26.04
2022-08-04T20:55:04.033Z,26.02
2022-08-04T20:57:47.515Z,26.03
2022-08-04T21:00:17.123Z,26.06
2022-08-04T21:02:45.083Z,25.97
2022-08-04T21:05:13.215Z,25.98
2022-08-04T21:07:41.641Z,26.05
2022-08-04T21:10:11.448Z,26.01
2022-08-04T21:12:39.454Z,25.86
2022-08-04T21:15:14.503Z,25.74
2022-08-04T21:17:58.712Z,25.72
2022-08-04T21:20:33.312Z,25.78
2022-08-04T21:23:03.698Z,25.79
2022-08-04T21:25:42.907Z,25.76
2022-08-04T21:28:11.847Z,25.74
2022-08-04T21:30:54.618Z,25.80
2022-08-04T21:33:50.032Z,25.79
2022-08-04T21:36:12.625Z,25.66
2022-08-04T21:38:41.862Z,25.70
2022-08-04T21:41:24.984Z,25.63
2022-08-04T21:43:55.710Z,25.50
2022-08-04T21:46:23.734Z,25.47
2022-08-04T21:48:51.990Z,25.46
2022-08-04T21:51:21.757Z,25.48
2022-08-04T21:54:11.579Z,25.39
2022-08-04T21:56:50.920Z,25.39
2022-08-04T21:59:23.596Z,25.37
2022-08-04T22:02:00.168Z,25.33
2022-08-04T22:04:28.625Z,25.31
2022-08-04T22:06:56.579Z,25.25
2022-08-04T22:09:24.599Z,25.25
2022-08-04T22:11:58.223Z,25.26
2022-08-04T22:14:34.643Z,25.17
2022-08-04T22:17:03.954Z,25.03
2022-08-04T22:19:40.692Z,24.95
2022-08-04T22:22:25.168Z,24.89
2022-08-04T22:24:55.060Z,24.94
2022-08-04T22:27:38.700Z,24.86
2022-08-04T22:30:13.316Z,24.74
2022-08-04T22:32:45.053Z,24.78
2022-08-04T22:35:35.427Z,24.80
2022-08-04T22:38:07.176Z,24.79
2022-08-04T22:40:50.078Z,24.75
2022-08-04T22:43:32.654Z,24.84
2022-08-04T22:46:03.888Z,24.81
2022-08-04T22:48:33.343Z,24.72
2022-08-04T22:51:01.360Z,24.63
2022-08-04T22:53:31.020Z,24.55
2022-08-04T22:56:10.072Z,24.59
2022-08-04T22:58:45.654Z,24.63
2022-08-04T23:01:18.921Z,24.62
2022-08-04T23:03:55.386Z,24.63
2022-08-04T23:06:24.273Z,24.38
2022-08-04T23:08:52.907Z,24.30
2022-08-04T23:11:21.646Z,24.18
2022-08-04T23:13:50.918Z,24.19
2022-08-04T23:16:20.085Z,24.21
2022-08-04T23:18:48.988Z,24.21
2022-08-04T23:21:17.285Z,24.25
2022-08-04T23:24:00.806Z,24.28
2022-08-04T23:26:30.821Z,24.35
2022-08-04T23:29:03.720Z,24.36
2022-08-04T23:31:41.465Z,24.20
2022-08-04T23:34:19.931Z,24.17
2022-08-04T23:36:47.897Z,24.24
2022-08-04T23:39:15.934Z,24.17
2022-08-04T23:41:54.337Z,24.15
2022-08-04T23:44:28.187Z,24.15
2022-08-04T23:47:00.353Z,23.97
2022-08-04T23:49:43.905Z,23.98
2022-08-04T23:52:23.601Z,23.99
2022-08-04T23:54:58.546Z,23.84
2022-08-04T23:58:02.402Z,23.87
